Aviation Digital Data Service (ADDS)

Output produced by METARs form (0738 UTC 23 July 2018)
found at http://www.aviationweather.gov/adds/metars/
 
METAR text: KLBE 230735Z AUTO 00000KT 10SM CLR 22/19 A2987 RMK AO2
Conditions at: KLBE (LATROBE/WESTMORL, PA, US) observed 0735 UTC 23 July 2018
Temperature: 22.0°C (72°F)
Dewpoint: 19.0°C (66°F) [RH = 83%]
Pressure (altimeter): 29.87 inches Hg (1011.6 mb)
Winds: calm
Visibility: 10 or more miles (16+ km)
Ceiling: at least 12,000 feet AGL
Clouds: sky clear below 12,000 feet AGL
Weather: automated observation with no human augmentation;
there may or may not be significant weather present at this time

METAR text: KLBE 230715Z AUTO 00000KT 10SM CLR 22/19 A2986 RMK AO2
Conditions at: KLBE (LATROBE/WESTMORL, PA, US) observed 0715 UTC 23 July 2018
Temperature: 22.0°C (72°F)
Dewpoint: 19.0°C (66°F) [RH = 83%]
Pressure (altimeter): 29.86 inches Hg (1011.3 mb)
Winds: calm
Visibility: 10 or more miles (16+ km)
Ceiling: at least 12,000 feet AGL
Clouds: sky clear below 12,000 feet AGL
Weather: automated observation with no human augmentation;
there may or may not be significant weather present at this time

METAR text: KLBE 230655Z AUTO 00000KT 10SM CLR 22/19 A2987 RMK AO2
Conditions at: KLBE (LATROBE/WESTMORL, PA, US) observed 0655 UTC 23 July 2018
Temperature: 22.0°C (72°F)
Dewpoint: 19.0°C (66°F) [RH = 83%]
Pressure (altimeter): 29.87 inches Hg (1011.6 mb)
Winds: calm
Visibility: 10 or more miles (16+ km)
Ceiling: at least 12,000 feet AGL
Clouds: sky clear below 12,000 feet AGL
Weather: automated observation with no human augmentation;
there may or may not be significant weather present at this time

METAR text: KLBE 230635Z AUTO VRB03KT 10SM SCT060 SCT080 BKN110 22/19 A2987 RMK AO2
Conditions at: KLBE (LATROBE/WESTMORL, PA, US) observed 0635 UTC 23 July 2018
Temperature: 22.0°C (72°F)
Dewpoint: 19.0°C (66°F) [RH = 83%]
Pressure (altimeter): 29.87 inches Hg (1011.6 mb)
Winds: variable direction winds at 3 MPH (3 knots; 1.6 m/s)
Visibility: 10 or more miles (16+ km)
Ceiling: 11000 feet AGL
Clouds: scattered clouds at 6000 feet AGL
scattered clouds at 8000 feet AGL
broken clouds at 11000 feet AGL
Weather: automated observation with no human augmentation;
there may or may not be significant weather present at this time

METAR text: KLBE 230615Z AUTO VRB03KT 10SM BKN060 BKN075 22/19 A2988 RMK AO2
Conditions at: KLBE (LATROBE/WESTMORL, PA, US) observed 0615 UTC 23 July 2018
Temperature: 22.0°C (72°F)
Dewpoint: 19.0°C (66°F) [RH = 83%]
Pressure (altimeter): 29.88 inches Hg (1011.9 mb)
Winds: variable direction winds at 3 MPH (3 knots; 1.6 m/s)
Visibility: 10 or more miles (16+ km)
Ceiling: 6000 feet AGL
Clouds: broken clouds at 6000 feet AGL
broken clouds at 7500 feet AGL
Weather: automated observation with no human augmentation;
there may or may not be significant weather present at this time

METAR text: KLBE 230555Z AUTO 00000KT 10SM BKN060 OVC070 21/19 A2988 RMK AO2
Conditions at: KLBE (LATROBE/WESTMORL, PA, US) observed 0555 UTC 23 July 2018
Temperature: 21.0°C (70°F)
Dewpoint: 19.0°C (66°F) [RH = 88%]
Pressure (altimeter): 29.88 inches Hg (1011.9 mb)
Winds: calm
Visibility: 10 or more miles (16+ km)
Ceiling: 6000 feet AGL
Clouds: broken clouds at 6000 feet AGL
overcast cloud deck at 7000 feet AGL
Weather: automated observation with no human augmentation;
there may or may not be significant weather present at this time

METAR text: KLBE 230535Z AUTO 31003KT 10SM BKN060 OVC070 21/19 A2988 RMK AO2
Conditions at: KLBE (LATROBE/WESTMORL, PA, US) observed 0535 UTC 23 July 2018
Temperature: 21.0°C (70°F)
Dewpoint: 19.0°C (66°F) [RH = 88%]
Pressure (altimeter): 29.88 inches Hg (1011.9 mb)
Winds: from the NW (310 degrees) at 3 MPH (3 knots; 1.6 m/s)
Visibility: 10 or more miles (16+ km)
Ceiling: 6000 feet AGL
Clouds: broken clouds at 6000 feet AGL
overcast cloud deck at 7000 feet AGL
Weather: automated observation with no human augmentation;
there may or may not be significant weather present at this time

METAR text: KLBE 230515Z AUTO 28004KT 10SM BKN060 BKN100 21/19 A2988 RMK AO2
Conditions at: KLBE (LATROBE/WESTMORL, PA, US) observed 0515 UTC 23 July 2018
Temperature: 21.0°C (70°F)
Dewpoint: 19.0°C (66°F) [RH = 88%]
Pressure (altimeter): 29.88 inches Hg (1011.9 mb)
Winds: from the W (280 degrees) at 5 MPH (4 knots; 2.1 m/s)
Visibility: 10 or more miles (16+ km)
Ceiling: 6000 feet AGL
Clouds: broken clouds at 6000 feet AGL
broken clouds at 10000 feet AGL
Weather: automated observation with no human augmentation;
there may or may not be significant weather present at this time

METAR text: KLBE 230455Z AUTO 00000KT 10SM SCT065 SCT100 21/19 A2988 RMK AO2
Conditions at: KLBE (LATROBE/WESTMORL, PA, US) observed 0455 UTC 23 July 2018
Temperature: 21.0°C (70°F)
Dewpoint: 19.0°C (66°F) [RH = 88%]
Pressure (altimeter): 29.88 inches Hg (1011.9 mb)
Winds: calm
Visibility: 10 or more miles (16+ km)
Ceiling: at least 12,000 feet AGL
Clouds: scattered clouds at 6500 feet AGL
scattered clouds at 10000 feet AGL
Weather: automated observation with no human augmentation;
there may or may not be significant weather present at this time

METAR text: KLBE 230435Z AUTO 00000KT 10SM FEW060 FEW070 20/19 A2989 RMK AO2
Conditions at: KLBE (LATROBE/WESTMORL, PA, US) observed 0435 UTC 23 July 2018
Temperature: 20.0°C (68°F)
Dewpoint: 19.0°C (66°F) [RH = 94%]
Pressure (altimeter): 29.89 inches Hg (1012.3 mb)
Winds: calm
Visibility: 10 or more miles (16+ km)
Ceiling: at least 12,000 feet AGL
Clouds: few clouds at 6000 feet AGL
few clouds at 7000 feet AGL
Weather: automated observation with no human augmentation;
there may or may not be significant weather present at this time

METAR text: KLBE 230415Z AUTO 00000KT 10SM CLR 21/19 A2989 RMK AO2
Conditions at: KLBE (LATROBE/WESTMORL, PA, US) observed 0415 UTC 23 July 2018
Temperature: 21.0°C (70°F)
Dewpoint: 19.0°C (66°F) [RH = 88%]
Pressure (altimeter): 29.89 inches Hg (1012.3 mb)
Winds: calm
Visibility: 10 or more miles (16+ km)
Ceiling: at least 12,000 feet AGL
Clouds: sky clear below 12,000 feet AGL
Weather: automated observation with no human augmentation;
there may or may not be significant weather present at this time

METAR text: KLBE 230355Z AUTO 00000KT 10SM FEW060 21/19 A2988 RMK AO2
Conditions at: KLBE (LATROBE/WESTMORL, PA, US) observed 0355 UTC 23 July 2018
Temperature: 21.0°C (70°F)
Dewpoint: 19.0°C (66°F) [RH = 88%]
Pressure (altimeter): 29.88 inches Hg (1011.9 mb)
Winds: calm
Visibility: 10 or more miles (16+ km)
Ceiling: at least 12,000 feet AGL
Clouds: few clouds at 6000 feet AGL
Weather: automated observation with no human augmentation;
there may or may not be significant weather present at this time

METAR text: KLBE 230335Z AUTO 00000KT 10SM CLR 22/19 A2987 RMK AO2
Conditions at: KLBE (LATROBE/WESTMORL, PA, US) observed 0335 UTC 23 July 2018
Temperature: 22.0°C (72°F)
Dewpoint: 19.0°C (66°F) [RH = 83%]
Pressure (altimeter): 29.87 inches Hg (1011.6 mb)
Winds: calm
Visibility: 10 or more miles (16+ km)
Ceiling: at least 12,000 feet AGL
Clouds: sky clear below 12,000 feet AGL
Weather: automated observation with no human augmentation;
there may or may not be significant weather present at this time

METAR text: KLBE 230315Z AUTO 00000KT 10SM CLR 21/19 A2987 RMK AO2
Conditions at: KLBE (LATROBE/WESTMORL, PA, US) observed 0315 UTC 23 July 2018
Temperature: 21.0°C (70°F)
Dewpoint: 19.0°C (66°F) [RH = 88%]
Pressure (altimeter): 29.87 inches Hg (1011.6 mb)
Winds: calm
Visibility: 10 or more miles (16+ km)
Ceiling: at least 12,000 feet AGL
Clouds: sky clear below 12,000 feet AGL
Weather: automated observation with no human augmentation;
there may or may not be significant weather present at this time

METAR text: KLBE 230255Z AUTO 00000KT 10SM FEW023 22/19 A2987 RMK AO2
Conditions at: KLBE (LATROBE/WESTMORL, PA, US) observed 0255 UTC 23 July 2018
Temperature: 22.0°C (72°F)
Dewpoint: 19.0°C (66°F) [RH = 83%]
Pressure (altimeter): 29.87 inches Hg (1011.6 mb)
Winds: calm
Visibility: 10 or more miles (16+ km)
Ceiling: at least 12,000 feet AGL
Clouds: few clouds at 2300 feet AGL
Weather: automated observation with no human augmentation;
there may or may not be significant weather present at this time

METAR text: KLBE 230235Z AUTO 00000KT 10SM SCT023 21/19 A2987 RMK AO2
Conditions at: KLBE (LATROBE/WESTMORL, PA, US) observed 0235 UTC 23 July 2018
Temperature: 21.0°C (70°F)
Dewpoint: 19.0°C (66°F) [RH = 88%]
Pressure (altimeter): 29.87 inches Hg (1011.6 mb)
Winds: calm
Visibility: 10 or more miles (16+ km)
Ceiling: at least 12,000 feet AGL
Clouds: scattered clouds at 2300 feet AGL
Weather: automated observation with no human augmentation;
there may or may not be significant weather present at this time

METAR text: KLBE 230215Z AUTO 00000KT 10SM CLR 22/19 A2987 RMK AO2
Conditions at: KLBE (LATROBE/WESTMORL, PA, US) observed 0215 UTC 23 July 2018
Temperature: 22.0°C (72°F)
Dewpoint: 19.0°C (66°F) [RH = 83%]
Pressure (altimeter): 29.87 inches Hg (1011.6 mb)
Winds: calm
Visibility: 10 or more miles (16+ km)
Ceiling: at least 12,000 feet AGL
Clouds: sky clear below 12,000 feet AGL
Weather: automated observation with no human augmentation;
there may or may not be significant weather present at this time

METAR text: KLBE 230150Z 06005KT 10SM SCT060 22/19 A2986
Conditions at: KLBE (LATROBE/WESTMORL, PA, US) observed 0150 UTC 23 July 2018
Temperature: 22.0°C (72°F)
Dewpoint: 19.0°C (66°F) [RH = 83%]
Pressure (altimeter): 29.86 inches Hg (1011.3 mb)
Winds: from the ENE (60 degrees) at 6 MPH (5 knots; 2.6 m/s)
Visibility: 10 or more miles (16+ km)
Ceiling: at least 12,000 feet AGL
Clouds: scattered clouds at 6000 feet AGL
Weather: no significant weather observed at this time

METAR text: KLBE 230050Z 00000KT 10SM FEW030 SCT075 22/19 A2985
Conditions at: KLBE (LATROBE/WESTMORL, PA, US) observed 0050 UTC 23 July 2018
Temperature: 22.0°C (72°F)
Dewpoint: 19.0°C (66°F) [RH = 83%]
Pressure (altimeter): 29.85 inches Hg (1010.9 mb)
Winds: calm
Visibility: 10 or more miles (16+ km)
Ceiling: at least 12,000 feet AGL
Clouds: few clouds at 3000 feet AGL
scattered clouds at 7500 feet AGL
Weather: no significant weather observed at this time

METAR text: KLBE 222350Z 13005KT 10SM BKN070 23/19 A2984
Conditions at: KLBE (LATROBE/WESTMORL, PA, US) observed 2350 UTC 22 July 2018
Temperature: 23.0°C (73°F)
Dewpoint: 19.0°C (66°F) [RH = 78%]
Pressure (altimeter): 29.84 inches Hg (1010.6 mb)
Winds: from the SE (130 degrees) at 6 MPH (5 knots; 2.6 m/s)
Visibility: 10 or more miles (16+ km)
Ceiling: 7000 feet AGL
Clouds: broken clouds at 7000 feet AGL
Weather: no significant weather observed at this time

METAR text: KLBE 222250Z 13008KT 10SM BKN070 24/19 A2982
Conditions at: KLBE (LATROBE/WESTMORL, PA, US) observed 2250 UTC 22 July 2018
Temperature: 24.0°C (75°F)
Dewpoint: 19.0°C (66°F) [RH = 74%]
Pressure (altimeter): 29.82 inches Hg (1009.9 mb)
Winds: from the SE (130 degrees) at 9 MPH (8 knots; 4.2 m/s)
Visibility: 10 or more miles (16+ km)
Ceiling: 7000 feet AGL
Clouds: broken clouds at 7000 feet AGL
Weather: no significant weather observed at this time

METAR text: KLBE 222150Z 11010KT 10SM FEW075 24/19 A2981
Conditions at: KLBE (LATROBE/WESTMORL, PA, US) observed 2150 UTC 22 July 2018
Temperature: 24.0°C (75°F)
Dewpoint: 19.0°C (66°F) [RH = 74%]
Pressure (altimeter): 29.81 inches Hg (1009.6 mb)
Winds: from the ESE (110 degrees) at 12 MPH (10 knots; 5.2 m/s)
Visibility: 10 or more miles (16+ km)
Ceiling: at least 12,000 feet AGL
Clouds: few clouds at 7500 feet AGL
Weather: no significant weather observed at this time

METAR text: KLBE 222050Z 09007KT 10SM FEW033 SCT080 24/19 A2981
Conditions at: KLBE (LATROBE/WESTMORL, PA, US) observed 2050 UTC 22 July 2018
Temperature: 24.0°C (75°F)
Dewpoint: 19.0°C (66°F) [RH = 74%]
Pressure (altimeter): 29.81 inches Hg (1009.6 mb)
Winds: from the E (90 degrees) at 8 MPH (7 knots; 3.6 m/s)
Visibility: 10 or more miles (16+ km)
Ceiling: at least 12,000 feet AGL
Clouds: few clouds at 3300 feet AGL
scattered clouds at 8000 feet AGL
Weather: no significant weather observed at this time

METAR text: KLBE 221950Z 13005KT 10SM FEW038 BKN065 24/19 A2980
Conditions at: KLBE (LATROBE/WESTMORL, PA, US) observed 1950 UTC 22 July 2018
Temperature: 24.0°C (75°F)
Dewpoint: 19.0°C (66°F) [RH = 74%]
Pressure (altimeter): 29.80 inches Hg (1009.2 mb)
Winds: from the SE (130 degrees) at 6 MPH (5 knots; 2.6 m/s)
Visibility: 10 or more miles (16+ km)
Ceiling: 6500 feet AGL
Clouds: few clouds at 3800 feet AGL
broken clouds at 6500 feet AGL
Weather: no significant weather observed at this time

METAR text: KLBE 221850Z 08008KT 10SM SCT042 BKN055 22/22 A2979
Conditions at: KLBE (LATROBE/WESTMORL, PA, US) observed 1850 UTC 22 July 2018
Temperature: 22.0°C (72°F)
Dewpoint: 22.0°C (72°F) [RH = 100%]
Pressure (altimeter): 29.79 inches Hg (1008.9 mb)
Winds: from the E (80 degrees) at 9 MPH (8 knots; 4.2 m/s)
Visibility: 10 or more miles (16+ km)
Ceiling: 5500 feet AGL
Clouds: scattered clouds at 4200 feet AGL
broken clouds at 5500 feet AGL
Weather: no significant weather observed at this time

METAR text: KLBE 221805Z 11018KT 1SM -RA BKN027 25/19 A2979
Conditions at: KLBE (LATROBE/WESTMORL, PA, US) observed 1805 UTC 22 July 2018
Temperature: 25.0°C (77°F)
Dewpoint: 19.0°C (66°F) [RH = 69%]
Pressure (altimeter): 29.79 inches Hg (1008.9 mb)
Winds: from the ESE (110 degrees) at 21 MPH (18 knots; 9.4 m/s)
Visibility: 1.00 miles (1.61 km)
Ceiling: 2700 feet AGL
Clouds: broken clouds at 2700 feet AGL
Weather: -RA  (light rain)

METAR text: KLBE 221750Z 00000KT 10SM BKN032 24/19 A2979
Conditions at: KLBE (LATROBE/WESTMORL, PA, US) observed 1750 UTC 22 July 2018
Temperature: 24.0°C (75°F)
Dewpoint: 19.0°C (66°F) [RH = 74%]
Pressure (altimeter): 29.79 inches Hg (1008.9 mb)
Winds: calm
Visibility: 10 or more miles (16+ km)
Ceiling: 3200 feet AGL
Clouds: broken clouds at 3200 feet AGL
Weather: no significant weather observed at this time

METAR text: KLBE 221650Z 24005KT 10SM BKN028 24/19 A2980
Conditions at: KLBE (LATROBE/WESTMORL, PA, US) observed 1650 UTC 22 July 2018
Temperature: 24.0°C (75°F)
Dewpoint: 19.0°C (66°F) [RH = 74%]
Pressure (altimeter): 29.80 inches Hg (1009.2 mb)
Winds: from the WSW (240 degrees) at 6 MPH (5 knots; 2.6 m/s)
Visibility: 10 or more miles (16+ km)
Ceiling: 2800 feet AGL
Clouds: broken clouds at 2800 feet AGL
Weather: no significant weather observed at this time

METAR text: KLBE 221550Z 24008KT 10SM OVC022 23/19 A2979
Conditions at: KLBE (LATROBE/WESTMORL, PA, US) observed 1550 UTC 22 July 2018
Temperature: 23.0°C (73°F)
Dewpoint: 19.0°C (66°F) [RH = 78%]
Pressure (altimeter): 29.79 inches Hg (1008.9 mb)
Winds: from the WSW (240 degrees) at 9 MPH (8 knots; 4.2 m/s)
Visibility: 10 or more miles (16+ km)
Ceiling: 2200 feet AGL
Clouds: overcast cloud deck at 2200 feet AGL
Weather: no significant weather observed at this time

METAR text: KLBE 221450Z 23010KT 10SM BKN025 22/18 A2979
Conditions at: KLBE (LATROBE/WESTMORL, PA, US) observed 1450 UTC 22 July 2018
Temperature: 22.0°C (72°F)
Dewpoint: 18.0°C (64°F) [RH = 78%]
Pressure (altimeter): 29.79 inches Hg (1008.9 mb)
Winds: from the SW (230 degrees) at 12 MPH (10 knots; 5.2 m/s)
Visibility: 10 or more miles (16+ km)
Ceiling: 2500 feet AGL
Clouds: broken clouds at 2500 feet AGL
Weather: no significant weather observed at this time

METAR text: KLBE 221350Z 23008KT 10SM BKN025 20/17 A2978
Conditions at: KLBE (LATROBE/WESTMORL, PA, US) observed 1350 UTC 22 July 2018
Temperature: 20.0°C (68°F)
Dewpoint: 17.0°C (63°F) [RH = 83%]
Pressure (altimeter): 29.78 inches Hg (1008.5 mb)
Winds: from the SW (230 degrees) at 9 MPH (8 knots; 4.2 m/s)
Visibility: 10 or more miles (16+ km)
Ceiling: 2500 feet AGL
Clouds: broken clouds at 2500 feet AGL
Weather: no significant weather observed at this time

METAR text: KLBE 221250Z 18005KT 10SM BKN018 19/17 A2978
Conditions at: KLBE (LATROBE/WESTMORL, PA, US) observed 1250 UTC 22 July 2018
Temperature: 19.0°C (66°F)
Dewpoint: 17.0°C (63°F) [RH = 88%]
Pressure (altimeter): 29.78 inches Hg (1008.5 mb)
Winds: from the S (180 degrees) at 6 MPH (5 knots; 2.6 m/s)
Visibility: 10 or more miles (16+ km)
Ceiling: 1800 feet AGL
Clouds: broken clouds at 1800 feet AGL
Weather: no significant weather observed at this time

METAR text: KLBE 221150Z 00000KT 10SM SCT030 18/16 A2977
Conditions at: KLBE (LATROBE/WESTMORL, PA, US) observed 1150 UTC 22 July 2018
Temperature: 18.0°C (64°F)
Dewpoint: 16.0°C (61°F) [RH = 88%]
Pressure (altimeter): 29.77 inches Hg (1008.2 mb)
Winds: calm
Visibility: 10 or more miles (16+ km)
Ceiling: at least 12,000 feet AGL
Clouds: scattered clouds at 3000 feet AGL
Weather: no significant weather observed at this time

METAR text: KLBE 221050Z 00000KT 10SM SCT025 16/16 A2975
Conditions at: KLBE (LATROBE/WESTMORL, PA, US) observed 1050 UTC 22 July 2018
Temperature: 16.0°C (61°F)
Dewpoint: 16.0°C (61°F) [RH = 100%]
Pressure (altimeter): 29.75 inches Hg (1007.5 mb)
Winds: calm
Visibility: 10 or more miles (16+ km)
Ceiling: at least 12,000 feet AGL
Clouds: scattered clouds at 2500 feet AGL
Weather: no significant weather observed at this time

METAR text: KLBE 220955Z AUTO 01004KT 10SM SCT007 SCT021 15/15 A2974 RMK AO2
Conditions at: KLBE (LATROBE/WESTMORL, PA, US) observed 0955 UTC 22 July 2018
Temperature: 15.0°C (59°F)
Dewpoint: 15.0°C (59°F) [RH = 100%]
Pressure (altimeter): 29.74 inches Hg (1007.2 mb)
Winds: from the N (10 degrees) at 5 MPH (4 knots; 2.1 m/s)
Visibility: 10 or more miles (16+ km)
Ceiling: at least 12,000 feet AGL
Clouds: scattered clouds at 700 feet AGL
scattered clouds at 2100 feet AGL
Weather: automated observation with no human augmentation;
there may or may not be significant weather present at this time

METAR text: KLBE 220935Z AUTO 00000KT 10SM OVC007 16/16 A2974 RMK AO2
Conditions at: KLBE (LATROBE/WESTMORL, PA, US) observed 0935 UTC 22 July 2018
Temperature: 16.0°C (61°F)
Dewpoint: 16.0°C (61°F) [RH = 100%]
Pressure (altimeter): 29.74 inches Hg (1007.2 mb)
Winds: calm
Visibility: 10 or more miles (16+ km)
Ceiling: 700 feet AGL
Clouds: overcast cloud deck at 700 feet AGL
Weather: automated observation with no human augmentation;
there may or may not be significant weather present at this time

METAR text: KLBE 220915Z AUTO 00000KT 10SM OVC008 16/16 A2974 RMK AO2
Conditions at: KLBE (LATROBE/WESTMORL, PA, US) observed 0915 UTC 22 July 2018
Temperature: 16.0°C (61°F)
Dewpoint: 16.0°C (61°F) [RH = 100%]
Pressure (altimeter): 29.74 inches Hg (1007.2 mb)
Winds: calm
Visibility: 10 or more miles (16+ km)
Ceiling: 800 feet AGL
Clouds: overcast cloud deck at 800 feet AGL
Weather: automated observation with no human augmentation;
there may or may not be significant weather present at this time

METAR text: KLBE 220855Z AUTO 00000KT 10SM OVC008 16/16 A2974 RMK AO2
Conditions at: KLBE (LATROBE/WESTMORL, PA, US) observed 0855 UTC 22 July 2018
Temperature: 16.0°C (61°F)
Dewpoint: 16.0°C (61°F) [RH = 100%]
Pressure (altimeter): 29.74 inches Hg (1007.2 mb)
Winds: calm
Visibility: 10 or more miles (16+ km)
Ceiling: 800 feet AGL
Clouds: overcast cloud deck at 800 feet AGL
Weather: automated observation with no human augmentation;
there may or may not be significant weather present at this time

METAR text: KLBE 220835Z AUTO 00000KT 10SM BKN009 BKN016 BKN120 16/16 A2974 RMK AO2
Conditions at: KLBE (LATROBE/WESTMORL, PA, US) observed 0835 UTC 22 July 2018
Temperature: 16.0°C (61°F)
Dewpoint: 16.0°C (61°F) [RH = 100%]
Pressure (altimeter): 29.74 inches Hg (1007.2 mb)
Winds: calm
Visibility: 10 or more miles (16+ km)
Ceiling: 900 feet AGL
Clouds: broken clouds at 900 feet AGL
broken clouds at 1600 feet AGL
broken clouds at 12000 feet AGL
Weather: automated observation with no human augmentation;
there may or may not be significant weather present at this time

METAR text: KLBE 220815Z AUTO 00000KT 10SM BKN008 BKN018 OVC120 16/16 A2974 RMK AO2
Conditions at: KLBE (LATROBE/WESTMORL, PA, US) observed 0815 UTC 22 July 2018
Temperature: 16.0°C (61°F)
Dewpoint: 16.0°C (61°F) [RH = 100%]
Pressure (altimeter): 29.74 inches Hg (1007.2 mb)
Winds: calm
Visibility: 10 or more miles (16+ km)
Ceiling: 800 feet AGL
Clouds: broken clouds at 800 feet AGL
broken clouds at 1800 feet AGL
overcast cloud deck at 12000 feet AGL
Weather: automated observation with no human augmentation;
there may or may not be significant weather present at this time

METAR text: KLBE 220755Z AUTO 00000KT 10SM BKN009 OVC019 16/16 A2974 RMK AO2
Conditions at: KLBE (LATROBE/WESTMORL, PA, US) observed 0755 UTC 22 July 2018
Temperature: 16.0°C (61°F)
Dewpoint: 16.0°C (61°F) [RH = 100%]
Pressure (altimeter): 29.74 inches Hg (1007.2 mb)
Winds: calm
Visibility: 10 or more miles (16+ km)
Ceiling: 900 feet AGL
Clouds: broken clouds at 900 feet AGL
overcast cloud deck at 1900 feet AGL
Weather: automated observation with no human augmentation;
there may or may not be significant weather present at this time